sensor_id;sensor_type;location;lat;lon;timestamp;pressure;altitude;pressure_sealevel;temperature;humidity
55604;BME280;41468;48.838;9.330;2022-07-06T00:00:08;98865.97;;;17.69;63.59
55604;BME280;41468;48.838;9.330;2022-07-06T00:02:39;98861.97;;;17.77;62.14
55604;BME280;41468;48.838;9.330;2022-07-06T00:05:09;98867.13;;;17.71;61.90
55604;BME280;41468;48.838;9.330;2022-07-06T00:07:39;98865.59;;;17.67;61.20
55604;BME280;41468;48.838;9.330;2022-07-06T00:10:08;98868.34;;;17.67;61.01
55604;BME280;41468;48.838;9.330;2022-07-06T00:12:38;98861.06;;;17.42;62.23
55604;BME280;41468;48.838;9.330;2022-07-06T00:15:11;98870.59;;;17.38;62.46
55604;BME280;41468;48.838;9.330;2022-07-06T00:17:41;98868.25;;;17.32;62.57
55604;BME280;41468;48.838;9.330;2022-07-06T00:20:11;98862.56;;;17.50;61.36
55604;BME280;41468;48.838;9.330;2022-07-06T00:22:41;98861.81;;;17.46;61.83
55604;BME280;41468;48.838;9.330;2022-07-06T00:25:10;98857.84;;;17.47;61.76
55604;BME280;41468;48.838;9.330;2022-07-06T00:27:40;98857.47;;;17.45;61.17
55604;BME280;41468;48.838;9.330;2022-07-06T00:30:12;98855.47;;;17.49;61.44
55604;BME280;41468;48.838;9.330;2022-07-06T00:32:42;98858.63;;;17.48;61.53
55604;BME280;41468;48.838;9.330;2022-07-06T00:35:12;98861.75;;;17.57;60.80
55604;BME280;41468;48.838;9.330;2022-07-06T00:37:42;98856.06;;;17.71;61.47
55604;BME280;41468;48.838;9.330;2022-07-06T00:40:12;98867.75;;;17.48;62.80
55604;BME280;41468;48.838;9.330;2022-07-06T00:42:43;98864.22;;;17.44;63.05
55604;BME280;41468;48.838;9.330;2022-07-06T00:45:17;98866.16;;;17.47;63.30
55604;BME280;41468;48.838;9.330;2022-07-06T00:47:47;98862.72;;;17.29;63.99
55604;BME280;41468;48.838;9.330;2022-07-06T00:50:18;98867.47;;;17.28;64.28
55604;BME280;41468;48.838;9.330;2022-07-06T00:52:51;98867.41;;;17.39;63.72
55604;BME280;41468;48.838;9.330;2022-07-06T00:55:22;98864.25;;;17.41;63.36
55604;BME280;41468;48.838;9.330;2022-07-06T00:57:53;98857.75;;;17.09;65.29
55604;BME280;41468;48.838;9.330;2022-07-06T01:00:26;98861.59;;;17.23;64.58
55604;BME280;41468;48.838;9.330;2022-07-06T01:02:57;98857.28;;;17.22;64.93
55604;BME280;41468;48.838;9.330;2022-07-06T01:05:27;98860.19;;;17.00;65.49
55604;BME280;41468;48.838;9.330;2022-07-06T01:07:57;98855.06;;;16.92;65.89
55604;BME280;41468;48.838;9.330;2022-07-06T01:10:27;98863.38;;;16.92;65.55
55604;BME280;41468;48.838;9.330;2022-07-06T01:12:57;98866.94;;;16.88;66.52
55604;BME280;41468;48.838;9.330;2022-07-06T01:15:29;98856.63;;;16.96;66.29
55604;BME280;41468;48.838;9.330;2022-07-06T01:17:59;98855.91;;;16.78;66.66
55604;BME280;41468;48.838;9.330;2022-07-06T01:20:32;98852.31;;;16.95;65.31
55604;BME280;41468;48.838;9.330;2022-07-06T01:23:02;98861.72;;;17.08;64.45
55604;BME280;41468;48.838;9.330;2022-07-06T01:25:31;98857.34;;;17.11;64.57
55604;BME280;41468;48.838;9.330;2022-07-06T01:28:02;98855.41;;;17.04;64.48
55604;BME280;41468;48.838;9.330;2022-07-06T01:30:32;98858.75;;;16.63;66.94
55604;BME280;41468;48.838;9.330;2022-07-06T01:33:02;98861.59;;;16.49;66.79
55604;BME280;41468;48.838;9.330;2022-07-06T01:35:35;98863.44;;;16.70;66.52
55604;BME280;41468;48.838;9.330;2022-07-06T01:38:07;98860.75;;;16.56;67.63
55604;BME280;41468;48.838;9.330;2022-07-06T01:40:36;98866.69;;;16.58;67.72
55604;BME280;41468;48.838;9.330;2022-07-06T01:43:06;98861.22;;;16.33;68.93
55604;BME280;41468;48.838;9.330;2022-07-06T01:45:36;98858.47;;;16.33;69.06
55604;BME280;41468;48.838;9.330;2022-07-06T01:48:06;98860.16;;;15.98;70.48
55604;BME280;41468;48.838;9.330;2022-07-06T01:50:39;98857.81;;;15.93;70.19
55604;BME280;41468;48.838;9.330;2022-07-06T01:53:09;98853.44;;;15.92;69.91
55604;BME280;41468;48.838;9.330;2022-07-06T01:55:38;98854.16;;;16.25;68.10
55604;BME280;41468;48.838;9.330;2022-07-06T01:58:08;98851.06;;;16.08;69.78
55604;BME280;41468;48.838;9.330;2022-07-06T02:00:38;98852.59;;;16.23;68.98
55604;BME280;41468;48.838;9.330;2022-07-06T02:03:08;98856.94;;;16.21;68.68
55604;BME280;41468;48.838;9.330;2022-07-06T02:05:40;98867.56;;;16.33;68.37
55604;BME280;41468;48.838;9.330;2022-07-06T02:08:10;98857.78;;;16.07;69.41
55604;BME280;41468;48.838;9.330;2022-07-06T02:10:40;98857.00;;;15.99;70.40
55604;BME280;41468;48.838;9.330;2022-07-06T02:13:10;98864.91;;;15.83;70.88
55604;BME280;41468;48.838;9.330;2022-07-06T02:15:39;98868.03;;;15.64;71.89
55604;BME280;41468;48.838;9.330;2022-07-06T02:18:09;98875.13;;;15.90;69.63
55604;BME280;41468;48.838;9.330;2022-07-06T02:20:42;98876.72;;;15.87;71.04
55604;BME280;41468;48.838;9.330;2022-07-06T02:23:13;98877.50;;;15.91;69.88
55604;BME280;41468;48.838;9.330;2022-07-06T02:25:43;98876.31;;;15.89;70.56
55604;BME280;41468;48.838;9.330;2022-07-06T02:28:13;98876.72;;;15.84;70.83
55604;BME280;41468;48.838;9.330;2022-07-06T02:30:42;98874.34;;;15.71;70.92
55604;BME280;41468;48.838;9.330;2022-07-06T02:33:13;98868.03;;;15.60;71.34
55604;BME280;41468;48.838;9.330;2022-07-06T02:35:45;98880.25;;;15.59;71.92
55604;BME280;41468;48.838;9.330;2022-07-06T02:38:15;98870.41;;;15.58;71.34
55604;BME280;41468;48.838;9.330;2022-07-06T02:40:45;98880.25;;;15.45;71.81
55604;BME280;41468;48.838;9.330;2022-07-06T02:43:15;98886.94;;;15.37;72.04
55604;BME280;41468;48.838;9.330;2022-07-06T02:45:45;98879.47;;;15.69;69.38
55604;BME280;41468;48.838;9.330;2022-07-06T02:48:15;98876.72;;;15.55;70.82
55604;BME280;41468;48.838;9.330;2022-07-06T02:50:51;98890.06;;;15.39;71.43
55604;BME280;41468;48.838;9.330;2022-07-06T02:53:20;98884.56;;;15.39;71.22
55604;BME280;41468;48.838;9.330;2022-07-06T02:55:50;98885.38;;;15.43;70.65
55604;BME280;41468;48.838;9.330;2022-07-06T02:58:20;98885.38;;;15.57;70.32
55604;BME280;41468;48.838;9.330;2022-07-06T03:00:50;98902.66;;;15.32;72.09
55604;BME280;41468;48.838;9.330;2022-07-06T03:03:20;98896.75;;;15.20;72.72
55604;BME280;41468;48.838;9.330;2022-07-06T03:05:53;98900.31;;;15.34;71.40
55604;BME280;41468;48.838;9.330;2022-07-06T03:08:23;98897.97;;;15.37;72.25
55604;BME280;41468;48.838;9.330;2022-07-06T03:10:52;98896.38;;;15.21;72.64
55604;BME280;41468;48.838;9.330;2022-07-06T03:13:22;98899.47;;;15.09;73.17
55604;BME280;41468;48.838;9.330;2022-07-06T03:15:52;98901.84;;;15.07;72.98
55604;BME280;41468;48.838;9.330;2022-07-06T03:18:22;98906.97;;;15.08;73.54
55604;BME280;41468;48.838;9.330;2022-07-06T03:20:55;98910.88;;;15.04;73.57
55604;BME280;41468;48.838;9.330;2022-07-06T03:23:25;98901.84;;;15.07;73.01
55604;BME280;41468;48.838;9.330;2022-07-06T03:25:55;98906.97;;;15.08;72.74
55604;BME280;41468;48.838;9.330;2022-07-06T03:28:25;98916.78;;;15.06;72.60
55604;BME280;41468;48.838;9.330;2022-07-06T03:30:54;98913.69;;;15.18;71.31
55604;BME280;41468;48.838;9.330;2022-07-06T03:33:24;98911.72;;;15.29;71.08
55604;BME280;41468;48.838;9.330;2022-07-06T03:35:57;98905.81;;;15.24;70.61
55604;BME280;41468;48.838;9.330;2022-07-06T03:38:27;98918.78;;;15.12;72.16
55604;BME280;41468;48.838;9.330;2022-07-06T03:40:56;98905.34;;;15.00;72.84
55604;BME280;41468;48.838;9.330;2022-07-06T03:43:26;98915.59;;;15.00;72.66
55604;BME280;41468;48.838;9.330;2022-07-06T03:45:56;98910.44;;;14.87;73.65
55604;BME280;41468;48.838;9.330;2022-07-06T03:48:26;98915.22;;;15.01;72.73
55604;BME280;41468;48.838;9.330;2022-07-06T03:50:58;98903.72;;;14.81;73.73
55604;BME280;41468;48.838;9.330;2022-07-06T03:53:28;98913.91;;;14.70;74.28
55604;BME280;41468;48.838;9.330;2022-07-06T03:55:58;98917.50;;;14.81;73.26
55604;BME280;41468;48.838;9.330;2022-07-06T03:58:40;98918.34;;;15.00;71.84
55604;BME280;41468;48.838;9.330;2022-07-06T04:01:10;98919.91;;;15.01;72.41
55604;BME280;41468;48.838;9.330;2022-07-06T04:03:39;98921.91;;;15.07;71.80
55604;BME280;41468;48.838;9.330;2022-07-06T04:06:12;98923.47;;;15.08;72.24
55604;BME280;41468;48.838;9.330;2022-07-06T04:08:42;98921.13;;;15.10;71.85
55604;BME280;41468;48.838;9.330;2022-07-06T04:11:12;98919.13;;;15.00;72.21
55604;BME280;41468;48.838;9.330;2022-07-06T04:13:41;98929.38;;;15.00;72.89
55604;BME280;41468;48.838;9.330;2022-07-06T04:16:11;98925.09;;;15.27;70.21
55604;BME280;41468;48.838;9.330;2022-07-06T04:18:41;98934.16;;;15.21;70.26
55604;BME280;41468;48.838;9.330;2022-07-06T04:21:13;98932.97;;;15.18;70.61
55604;BME280;41468;48.838;9.330;2022-07-06T04:23:43;98935.72;;;15.25;70.64
55604;BME280;41468;48.838;9.330;2022-07-06T04:26:13;98937.31;;;15.26;70.67
55604;BME280;41468;48.838;9.330;2022-07-06T04:28:43;98939.63;;;15.17;71.66
55604;BME280;41468;48.838;9.330;2022-07-06T04:31:12;98940.06;;;15.23;70.89
55604;BME280;41468;48.838;9.330;2022-07-06T04:33:43;98941.25;;;15.32;70.69
55604;BME280;41468;48.838;9.330;2022-07-06T04:36:15;98940.44;;;15.25;70.95
55604;BME280;41468;48.838;9.330;2022-07-06T04:38:45;98938.09;;;15.23;71.77
55604;BME280;41468;48.838;9.330;2022-07-06T04:41:15;98940.47;;;15.28;71.28
55604;BME280;41468;48.838;9.330;2022-07-06T04:43:45;98945.16;;;15.28;71.96
55604;BME280;41468;48.838;9.330;2022-07-06T04:46:15;98944.78;;;15.29;71.69
55604;BME280;41468;48.838;9.330;2022-07-06T04:48:46;98955.44;;;15.31;72.13
55604;BME280;41468;48.838;9.330;2022-07-06T04:51:18;98949.94;;;15.45;70.72
55604;BME280;41468;48.838;9.330;2022-07-06T04:53:48;98953.50;;;15.42;72.22
55604;BME280;41468;48.838;9.330;2022-07-06T04:56:18;98958.59;;;15.40;72.18
55604;BME280;41468;48.838;9.330;2022-07-06T04:58:47;98958.97;;;15.39;72.89
55604;BME280;41468;48.838;9.330;2022-07-06T05:01:17;98959.78;;;15.46;71.76
55604;BME280;41468;48.838;9.330;2022-07-06T05:03:47;98969.72;;;15.80;71.31
55604;BME280;41468;48.838;9.330;2022-07-06T05:06:19;98962.09;;;16.70;67.55
55604;BME280;41468;48.838;9.330;2022-07-06T05:08:49;98968.13;;;17.38;64.96
55604;BME280;41468;48.838;9.330;2022-07-06T05:11:19;98961.63;;;17.70;63.23
55604;BME280;41468;48.838;9.330;2022-07-06T05:13:49;98971.16;;;18.14;62.72
55604;BME280;41468;48.838;9.330;2022-07-06T05:16:19;98960.59;;;19.12;59.66
55604;BME280;41468;48.838;9.330;2022-07-06T05:18:49;98965.88;;;20.78;55.11
55604;BME280;41468;48.838;9.330;2022-07-06T05:21:21;98964.88;;;22.43;49.79
55604;BME280;41468;48.838;9.330;2022-07-06T05:23:52;98956.50;;;24.42;44.44
55604;BME280;41468;48.838;9.330;2022-07-06T05:26:22;98958.66;;;25.26;42.95
55604;BME280;41468;48.838;9.330;2022-07-06T05:28:52;98967.13;;;25.13;42.80
55604;BME280;41468;48.838;9.330;2022-07-06T05:31:22;98971.47;;;23.75;45.37
55604;BME280;41468;48.838;9.330;2022-07-06T05:33:51;98981.03;;;23.35;46.80
55604;BME280;41468;48.838;9.330;2022-07-06T05:36:26;98971.28;;;24.29;45.15
55604;BME280;41468;48.838;9.330;2022-07-06T05:38:56;98974.09;;;24.17;44.87
55604;BME280;41468;48.838;9.330;2022-07-06T05:41:26;98979.22;;;22.74;47.92
55604;BME280;41468;48.838;9.330;2022-07-06T05:43:57;98981.91;;;21.83;50.55
55604;BME280;41468;48.838;9.330;2022-07-06T05:46:27;98974.50;;;21.76;50.96
55604;BME280;41468;48.838;9.330;2022-07-06T05:48:57;98978.50;;;21.91;50.75
55604;BME280;41468;48.838;9.330;2022-07-06T05:51:42;98966.72;;;21.15;52.40
55604;BME280;41468;48.838;9.330;2022-07-06T05:54:12;98967.63;;;20.48;54.53
55604;BME280;41468;48.838;9.330;2022-07-06T05:56:42;98969.56;;;20.04;55.22
55604;BME280;41468;48.838;9.330;2022-07-06T05:59:12;98971.59;;;19.77;56.60
55604;BME280;41468;48.838;9.330;2022-07-06T06:01:41;98976.91;;;19.67;57.76
55604;BME280;41468;48.838;9.330;2022-07-06T06:04:11;98980.06;;;19.93;57.48
55604;BME280;41468;48.838;9.330;2022-07-06T06:06:44;98977.94;;;19.77;57.65
55604;BME280;41468;48.838;9.330;2022-07-06T06:09:13;98981.22;;;20.43;56.09
55604;BME280;41468;48.838;9.330;2022-07-06T06:11:43;98975.84;;;20.55;54.89
55604;BME280;41468;48.838;9.330;2022-07-06T06:14:13;98985.78;;;20.76;54.71
55604;BME280;41468;48.838;9.330;2022-07-06T06:16:43;98971.56;;;20.71;54.49
55604;BME280;41468;48.838;9.330;2022-07-06T06:19:13;98985.13;;;20.69;54.04
55604;BME280;41468;48.838;9.330;2022-07-06T06:21:45;98985.41;;;20.94;54.00
55604;BME280;41468;48.838;9.330;2022-07-06T06:24:15;98982.97;;;20.96;54.11
55604;BME280;41468;48.838;9.330;2022-07-06T06:26:45;98988.84;;;20.82;53.85
55604;BME280;41468;48.838;9.330;2022-07-06T06:29:14;98988.75;;;21.05;53.63
55604;BME280;41468;48.838;9.330;2022-07-06T06:31:44;98992.31;;;21.06;53.33
55604;BME280;41468;48.838;9.330;2022-07-06T06:34:14;98988.53;;;20.96;52.84
55604;BME280;41468;48.838;9.330;2022-07-06T06:36:46;99000.66;;;20.86;52.26
55604;BME280;41468;48.838;9.330;2022-07-06T06:39:16;98996.47;;;20.54;53.32
55604;BME280;41468;48.838;9.330;2022-07-06T06:41:46;99001.03;;;20.45;53.86
55604;BME280;41468;48.838;9.330;2022-07-06T06:44:16;98998.06;;;20.55;53.85
55604;BME280;41468;48.838;9.330;2022-07-06T06:46:46;99000.19;;;20.48;54.16
55604;BME280;41468;48.838;9.330;2022-07-06T06:49:16;98995.78;;;20.50;54.13
55604;BME280;41468;48.838;9.330;2022-07-06T06:51:48;98998.66;;;20.67;53.70
55604;BME280;41468;48.838;9.330;2022-07-06T06:54:38;98999.00;;;20.89;53.03
55604;BME280;41468;48.838;9.330;2022-07-06T06:57:08;98998.03;;;20.79;53.52
55604;BME280;41468;48.838;9.330;2022-07-06T06:59:38;99000.81;;;20.99;54.26
55604;BME280;41468;48.838;9.330;2022-07-06T07:02:08;98989.53;;;21.06;51.70
55604;BME280;41468;48.838;9.330;2022-07-06T07:04:37;98992.94;;;21.14;52.72
55604;BME280;41468;48.838;9.330;2022-07-06T07:07:10;98991.63;;;21.22;51.75
55604;BME280;41468;48.838;9.330;2022-07-06T07:09:40;98988.69;;;21.09;52.02
55604;BME280;41468;48.838;9.330;2022-07-06T07:12:10;98991.59;;;21.02;53.45
55604;BME280;41468;48.838;9.330;2022-07-06T07:14:41;98996.66;;;21.07;53.72
55604;BME280;41468;48.838;9.330;2022-07-06T07:17:11;98986.25;;;21.31;52.02
55604;BME280;41468;48.838;9.330;2022-07-06T07:19:41;98989.09;;;21.08;51.70
55604;BME280;41468;48.838;9.330;2022-07-06T07:22:14;98990.50;;;21.16;52.65
55604;BME280;41468;48.838;9.330;2022-07-06T07:24:44;98981.56;;;21.28;52.27
55604;BME280;41468;48.838;9.330;2022-07-06T07:27:14;98990.53;;;21.36;52.21
55604;BME280;41468;48.838;9.330;2022-07-06T07:29:44;98983.00;;;21.53;51.65
55604;BME280;41468;48.838;9.330;2022-07-06T07:32:14;98970.47;;;21.61;49.81
55604;BME280;41468;48.838;9.330;2022-07-06T07:34:43;98979.59;;;21.45;50.85
55604;BME280;41468;48.838;9.330;2022-07-06T07:37:16;98977.09;;;21.67;50.85
55604;BME280;41468;48.838;9.330;2022-07-06T07:39:46;98978.84;;;21.77;50.36
55604;BME280;41468;48.838;9.330;2022-07-06T07:42:15;98975.38;;;21.89;49.53
55604;BME280;41468;48.838;9.330;2022-07-06T07:44:45;98988.78;;;21.94;51.06
55604;BME280;41468;48.838;9.330;2022-07-06T07:47:15;98979.22;;;22.12;49.91
55604;BME280;41468;48.838;9.330;2022-07-06T07:49:45;98970.69;;;22.19;49.68
55604;BME280;41468;48.838;9.330;2022-07-06T07:52:17;98975.91;;;22.17;49.90
55604;BME280;41468;48.838;9.330;2022-07-06T07:54:47;98979.31;;;22.25;49.66
55604;BME280;41468;48.838;9.330;2022-07-06T07:57:37;98968.22;;;22.37;49.25
55604;BME280;41468;48.838;9.330;2022-07-06T08:00:08;98976.75;;;22.47;49.05
55604;BME280;41468;48.838;9.330;2022-07-06T08:02:38;98972.81;;;22.44;48.07
55604;BME280;41468;48.838;9.330;2022-07-06T08:05:08;98975.13;;;22.78;47.85
55604;BME280;41468;48.838;9.330;2022-07-06T08:07:43;98977.00;;;22.81;46.54
55604;BME280;41468;48.838;9.330;2022-07-06T08:10:12;98979.09;;;22.77;47.22
55604;BME280;41468;48.838;9.330;2022-07-06T08:12:42;98979.69;;;22.85;47.28
55604;BME280;41468;48.838;9.330;2022-07-06T08:15:13;98982.75;;;23.03;47.34
55604;BME280;41468;48.838;9.330;2022-07-06T08:17:43;98976.66;;;22.79;47.65
55604;BME280;41468;48.838;9.330;2022-07-06T08:20:13;98975.31;;;23.13;47.16
55604;BME280;41468;48.838;9.330;2022-07-06T08:22:45;98984.03;;;23.15;46.97
55604;BME280;41468;48.838;9.330;2022-07-06T08:25:15;98977.94;;;23.46;46.34
55604;BME280;41468;48.838;9.330;2022-07-06T08:27:45;98984.81;;;23.29;47.07
55604;BME280;41468;48.838;9.330;2022-07-06T08:30:15;98974.44;;;23.42;47.01
55604;BME280;41468;48.838;9.330;2022-07-06T08:32:45;98978.78;;;23.30;47.18
55604;BME280;41468;48.838;9.330;2022-07-06T08:35:34;98969.75;;;23.39;46.45
55604;BME280;41468;48.838;9.330;2022-07-06T08:38:07;98977.97;;;23.59;45.80
55604;BME280;41468;48.838;9.330;2022-07-06T08:40:38;98964.78;;;23.59;46.02
55604;BME280;41468;48.838;9.330;2022-07-06T08:43:09;98978.78;;;23.30;45.71
55604;BME280;41468;48.838;9.330;2022-07-06T08:45:41;98963.44;;;23.64;45.36
55604;BME280;41468;48.838;9.330;2022-07-06T08:48:12;98966.78;;;23.72;45.95
55604;BME280;41468;48.838;9.330;2022-07-06T08:50:42;98962.63;;;23.76;45.18
55604;BME280;41468;48.838;9.330;2022-07-06T08:53:16;98965.09;;;23.87;45.65
55604;BME280;41468;48.838;9.330;2022-07-06T08:55:47;98974.47;;;23.55;45.69
55604;BME280;41468;48.838;9.330;2022-07-06T08:58:19;98971.34;;;23.78;45.14
55604;BME280;41468;48.838;9.330;2022-07-06T09:00:50;98970.66;;;23.87;45.39
55604;BME280;41468;48.838;9.330;2022-07-06T09:03:20;98962.19;;;23.90;44.68
55604;BME280;41468;48.838;9.330;2022-07-06T09:05:52;98962.28;;;23.87;45.88
55604;BME280;41468;48.838;9.330;2022-07-06T09:08:27;98977.00;;;24.26;45.16
55604;BME280;41468;48.838;9.330;2022-07-06T09:10:57;98983.94;;;24.21;44.59
55604;BME280;41468;48.838;9.330;2022-07-06T09:13:27;98977.78;;;24.13;44.33
55604;BME280;41468;48.838;9.330;2022-07-06T09:16:08;98986.78;;;24.43;44.66
55604;BME280;41468;48.838;9.330;2022-07-06T09:18:59;98985.25;;;24.29;44.35
55604;BME280;41468;48.838;9.330;2022-07-06T09:21:30;98977.41;;;24.37;43.77
55604;BME280;41468;48.838;9.330;2022-07-06T09:24:08;98980.75;;;24.45;43.96
55604;BME280;41468;48.838;9.330;2022-07-06T09:26:38;98993.50;;;24.68;44.59
55604;BME280;41468;48.838;9.330;2022-07-06T09:29:10;98977.84;;;24.70;43.67
55604;BME280;41468;48.838;9.330;2022-07-06T09:31:40;98989.53;;;24.56;43.89
55604;BME280;41468;48.838;9.330;2022-07-06T09:34:11;98992.59;;;24.71;43.03
55604;BME280;41468;48.838;9.330;2022-07-06T09:36:43;98990.81;;;24.42;42.18
55604;BME280;41468;48.838;9.330;2022-07-06T09:39:23;98995.84;;;24.47;43.85
55604;BME280;41468;48.838;9.330;2022-07-06T09:41:55;98999.94;;;24.55;43.62
55604;BME280;41468;48.838;9.330;2022-07-06T09:44:26;98996.00;;;24.66;44.09
55604;BME280;41468;48.838;9.330;2022-07-06T09:46:58;98995.00;;;24.60;43.33
55604;BME280;41468;48.838;9.330;2022-07-06T09:49:29;99007.03;;;24.47;44.12
55604;BME280;41468;48.838;9.330;2022-07-06T09:52:01;98995.34;;;24.62;43.61
55604;BME280;41468;48.838;9.330;2022-07-06T09:54:35;98997.63;;;24.76;44.12
55604;BME280;41468;48.838;9.330;2022-07-06T09:57:06;99006.84;;;24.64;43.56
55604;BME280;41468;48.838;9.330;2022-07-06T09:59:37;98997.09;;;24.68;43.82
55604;BME280;41468;48.838;9.330;2022-07-06T10:02:07;99007.44;;;24.81;44.27
55604;BME280;41468;48.838;9.330;2022-07-06T10:04:41;99004.88;;;24.86;43.57
55604;BME280;41468;48.838;9.330;2022-07-06T10:07:14;98995.91;;;24.78;43.66
55604;BME280;41468;48.838;9.330;2022-07-06T10:09:48;99010.03;;;24.75;43.39
55604;BME280;41468;48.838;9.330;2022-07-06T10:12:18;99007.75;;;25.17;42.97
55604;BME280;41468;48.838;9.330;2022-07-06T10:14:49;99004.09;;;25.08;41.86
55604;BME280;41468;48.838;9.330;2022-07-06T10:17:21;99003.81;;;25.37;43.43
55604;BME280;41468;48.838;9.330;2022-07-06T10:19:53;99005.66;;;25.09;43.52
55604;BME280;41468;48.838;9.330;2022-07-06T10:22:29;98999.00;;;24.71;44.81
55604;BME280;41468;48.838;9.330;2022-07-06T10:25:02;98998.47;;;24.64;44.61
55604;BME280;41468;48.838;9.330;2022-07-06T10:27:34;98997.44;;;24.92;44.52
55604;BME280;41468;48.838;9.330;2022-07-06T10:30:06;98998.16;;;25.06;44.36
55604;BME280;41468;48.838;9.330;2022-07-06T10:32:38;99011.91;;;25.13;44.08
55604;BME280;41468;48.838;9.330;2022-07-06T10:35:09;99001.06;;;24.80;44.13
55604;BME280;41468;48.838;9.330;2022-07-06T10:37:39;99002.81;;;24.30;45.33
55604;BME280;41468;48.838;9.330;2022-07-06T10:40:13;99002.97;;;24.48;45.79
55604;BME280;41468;48.838;9.330;2022-07-06T10:42:57;99007.47;;;25.03;44.48
55604;BME280;41468;48.838;9.330;2022-07-06T10:45:52;98997.88;;;25.04;43.96
55604;BME280;41468;48.838;9.330;2022-07-06T10:48:22;99002.94;;;24.61;43.62
55604;BME280;41468;48.838;9.330;2022-07-06T10:50:54;99010.81;;;24.53;44.34
55604;BME280;41468;48.838;9.330;2022-07-06T10:53:27;99007.97;;;24.66;43.92
55604;BME280;41468;48.838;9.330;2022-07-06T10:56:03;98998.75;;;25.22;43.67
55604;BME280;41468;48.838;9.330;2022-07-06T10:58:38;98998.03;;;25.62;42.70
55604;BME280;41468;48.838;9.330;2022-07-06T11:01:10;99000.69;;;25.66;42.06
55604;BME280;41468;48.838;9.330;2022-07-06T11:03:42;98988.06;;;25.61;41.78
55604;BME280;41468;48.838;9.330;2022-07-06T11:06:14;98999.44;;;25.36;42.48
55604;BME280;41468;48.838;9.330;2022-07-06T11:08:53;98991.16;;;25.54;42.08
55604;BME280;41468;48.838;9.330;2022-07-06T11:11:38;98987.03;;;25.77;41.80
55604;BME280;41468;48.838;9.330;2022-07-06T11:14:11;98999.19;;;25.83;42.08
55604;BME280;41468;48.838;9.330;2022-07-06T11:16:59;98992.06;;;25.82;41.39
55604;BME280;41468;48.838;9.330;2022-07-06T11:19:31;98990.78;;;25.83;41.31
55604;BME280;41468;48.838;9.330;2022-07-06T11:22:06;98988.97;;;25.90;41.04
55604;BME280;41468;48.838;9.330;2022-07-06T11:24:37;98981.53;;;26.14;41.09
55604;BME280;41468;48.838;9.330;2022-07-06T11:27:11;98978.25;;;25.57;40.79
55604;BME280;41468;48.838;9.330;2022-07-06T11:29:41;98988.44;;;25.73;41.44
55604;BME280;41468;48.838;9.330;2022-07-06T11:32:12;98981.31;;;25.50;41.72
55604;BME280;41468;48.838;9.330;2022-07-06T11:34:43;98974.28;;;25.14;41.99
55604;BME280;41468;48.838;9.330;2022-07-06T11:37:14;98978.88;;;25.30;42.02
55604;BME280;41468;48.838;9.330;2022-07-06T11:39:45;98978.47;;;25.40;41.96
55604;BME280;41468;48.838;9.330;2022-07-06T11:42:19;98979.66;;;25.52;42.32
55604;BME280;41468;48.838;9.330;2022-07-06T11:44:49;98972.16;;;25.90;40.63
55604;BME280;41468;48.838;9.330;2022-07-06T11:47:19;98972.56;;;25.38;41.56
55604;BME280;41468;48.838;9.330;2022-07-06T11:49:51;98981.00;;;24.94;42.91
55604;BME280;41468;48.838;9.330;2022-07-06T11:52:21;98972.09;;;25.09;42.77
55604;BME280;41468;48.838;9.330;2022-07-06T11:54:57;98969.91;;;25.13;42.05
55604;BME280;41468;48.838;9.330;2022-07-06T11:57:32;98966.06;;;25.51;41.93
55604;BME280;41468;48.838;9.330;2022-07-06T12:00:02;98961.72;;;25.50;41.57
55604;BME280;41468;48.838;9.330;2022-07-06T12:02:32;98975.34;;;25.70;41.24
55604;BME280;41468;48.838;9.330;2022-07-06T12:05:02;98958.47;;;25.51;42.62
55604;BME280;41468;48.838;9.330;2022-07-06T12:07:32;98961.75;;;24.96;42.07
55604;BME280;41468;48.838;9.330;2022-07-06T12:10:03;98964.00;;;24.67;43.52
55604;BME280;41468;48.838;9.330;2022-07-06T12:12:35;98964.63;;;24.49;43.35
55604;BME280;41468;48.838;9.330;2022-07-06T12:15:06;98963.06;;;24.70;43.71
55604;BME280;41468;48.838;9.330;2022-07-06T12:17:36;98955.06;;;24.81;43.99
55604;BME280;41468;48.838;9.330;2022-07-06T12:20:10;98965.00;;;24.60;43.67
55604;BME280;41468;48.838;9.330;2022-07-06T12:22:40;98963.03;;;24.26;43.58
55604;BME280;41468;48.838;9.330;2022-07-06T12:25:11;98964.03;;;24.19;44.91
55604;BME280;41468;48.838;9.330;2022-07-06T12:27:43;98964.38;;;24.21;43.82
55604;BME280;41468;48.838;9.330;2022-07-06T12:30:15;98957.25;;;24.07;44.80
55604;BME280;41468;48.838;9.330;2022-07-06T12:33:13;98954.09;;;24.05;44.08
55604;BME280;41468;48.838;9.330;2022-07-06T12:35:45;98961.25;;;24.06;44.89
55604;BME280;41468;48.838;9.330;2022-07-06T12:38:21;98957.25;;;23.82;45.60
55604;BME280;41468;48.838;9.330;2022-07-06T12:40:51;98953.47;;;23.76;46.06
55604;BME280;41468;48.838;9.330;2022-07-06T12:43:40;98953.50;;;23.63;45.45
55604;BME280;41468;48.838;9.330;2022-07-06T12:46:28;98943.19;;;23.34;46.14
55604;BME280;41468;48.838;9.330;2022-07-06T12:49:00;98955.28;;;23.44;46.21
55604;BME280;41468;48.838;9.330;2022-07-06T12:51:50;98947.56;;;23.74;46.43
55604;BME280;41468;48.838;9.330;2022-07-06T12:54:21;98955.78;;;24.03;45.74
55604;BME280;41468;48.838;9.330;2022-07-06T12:59:43;98953.00;;;23.90;44.29
55604;BME280;41468;48.838;9.330;2022-07-06T13:02:21;98955.44;;;24.13;45.05
55604;BME280;41468;48.838;9.330;2022-07-06T13:05:13;98953.25;;;23.83;44.73
55604;BME280;41468;48.838;9.330;2022-07-06T13:07:44;98955.41;;;23.53;45.90
55604;BME280;41468;48.838;9.330;2022-07-06T13:10:15;98957.63;;;23.45;45.56
55604;BME280;41468;48.838;9.330;2022-07-06T13:12:45;98957.25;;;23.31;46.05
55604;BME280;41468;48.838;9.330;2022-07-06T13:15:18;98953.88;;;23.10;45.63
55604;BME280;41468;48.838;9.330;2022-07-06T13:17:47;98951.59;;;23.47;46.60
55604;BME280;41468;48.838;9.330;2022-07-06T13:20:17;98955.38;;;23.79;46.04
55604;BME280;41468;48.838;9.330;2022-07-06T13:22:47;98950.91;;;23.68;45.82
55604;BME280;41468;48.838;9.330;2022-07-06T13:25:17;98948.25;;;23.65;45.74